sensor_id;sensor_type;location;lat;lon;timestamp;P1;durP1;ratioP1;P2;durP2;ratioP2
71172;SDS011;58875;51.996;4.504;2022-12-24T00:00:30;25.81;;;15.85;;
71172;SDS011;58875;51.996;4.504;2022-12-24T00:02:56;26.20;;;16.08;;
71172;SDS011;58875;51.996;4.504;2022-12-24T00:05:22;27.02;;;16.58;;
71172;SDS011;58875;51.996;4.504;2022-12-24T00:07:47;27.78;;;16.95;;
71172;SDS011;58875;51.996;4.504;2022-12-24T00:10:13;28.23;;;17.20;;
71172;SDS011;58875;51.996;4.504;2022-12-24T00:12:38;26.01;;;15.88;;
71172;SDS011;58875;51.996;4.504;2022-12-24T00:15:04;25.23;;;15.43;;
71172;SDS011;58875;51.996;4.504;2022-12-24T00:17:31;26.55;;;16.34;;
71172;SDS011;58875;51.996;4.504;2022-12-24T00:19:57;25.06;;;15.45;;
71172;SDS011;58875;51.996;4.504;2022-12-24T00:22:22;23.89;;;14.87;;
71172;SDS011;58875;51.996;4.504;2022-12-24T00:24:48;24.80;;;15.36;;
71172;SDS011;58875;51.996;4.504;2022-12-24T00:27:13;24.63;;;15.21;;
71172;SDS011;58875;51.996;4.504;2022-12-24T00:29:39;25.77;;;15.88;;
71172;SDS011;58875;51.996;4.504;2022-12-24T00:32:04;23.87;;;14.83;;
71172;SDS011;58875;51.996;4.504;2022-12-24T00:34:35;25.31;;;15.66;;
71172;SDS011;58875;51.996;4.504;2022-12-24T00:37:01;25.59;;;15.80;;
71172;SDS011;58875;51.996;4.504;2022-12-24T00:39:27;22.91;;;14.25;;
71172;SDS011;58875;51.996;4.504;2022-12-24T00:41:52;24.27;;;15.14;;
71172;SDS011;58875;51.996;4.504;2022-12-24T00:44:18;23.83;;;14.76;;
71172;SDS011;58875;51.996;4.504;2022-12-24T00:46:43;23.98;;;14.81;;
71172;SDS011;58875;51.996;4.504;2022-12-24T00:49:09;23.61;;;14.50;;
71172;SDS011;58875;51.996;4.504;2022-12-24T00:51:37;22.93;;;14.16;;
71172;SDS011;58875;51.996;4.504;2022-12-24T00:54:03;22.56;;;14.05;;
71172;SDS011;58875;51.996;4.504;2022-12-24T00:56:30;24.42;;;15.02;;
71172;SDS011;58875;51.996;4.504;2022-12-24T00:58:56;24.63;;;15.14;;
71172;SDS011;58875;51.996;4.504;2022-12-24T01:01:22;25.54;;;15.61;;
71172;SDS011;58875;51.996;4.504;2022-12-24T01:03:49;25.30;;;15.41;;
71172;SDS011;58875;51.996;4.504;2022-12-24T01:06:17;23.17;;;14.23;;
71172;SDS011;58875;51.996;4.504;2022-12-24T01:08:44;22.40;;;13.78;;
71172;SDS011;58875;51.996;4.504;2022-12-24T01:11:10;24.94;;;15.14;;
71172;SDS011;58875;51.996;4.504;2022-12-24T01:13:37;25.87;;;15.61;;
71172;SDS011;58875;51.996;4.504;2022-12-24T01:16:10;26.99;;;16.30;;
71172;SDS011;58875;51.996;4.504;2022-12-24T01:18:43;24.56;;;14.94;;
71172;SDS011;58875;51.996;4.504;2022-12-24T01:21:08;24.56;;;14.94;;
71172;SDS011;58875;51.996;4.504;2022-12-24T01:23:34;23.70;;;14.51;;
71172;SDS011;58875;51.996;4.504;2022-12-24T01:26:00;21.90;;;13.49;;
71172;SDS011;58875;51.996;4.504;2022-12-24T01:28:28;24.03;;;14.60;;
71172;SDS011;58875;51.996;4.504;2022-12-24T01:30:53;25.94;;;15.82;;
71172;SDS011;58875;51.996;4.504;2022-12-24T01:33:19;21.43;;;13.17;;
71172;SDS011;58875;51.996;4.504;2022-12-24T01:35:44;22.39;;;13.81;;
71172;SDS011;58875;51.996;4.504;2022-12-24T01:38:13;23.85;;;14.61;;
71172;SDS011;58875;51.996;4.504;2022-12-24T01:40:39;23.44;;;14.19;;
71172;SDS011;58875;51.996;4.504;2022-12-24T01:43:26;22.28;;;13.52;;
71172;SDS011;58875;51.996;4.504;2022-12-24T01:48:42;21.17;;;12.96;;
71172;SDS011;58875;51.996;4.504;2022-12-24T01:51:15;20.64;;;12.75;;
71172;SDS011;58875;51.996;4.504;2022-12-24T01:53:49;20.29;;;12.49;;
71172;SDS011;58875;51.996;4.504;2022-12-24T01:56:20;20.80;;;12.81;;
71172;SDS011;58875;51.996;4.504;2022-12-24T01:58:49;20.09;;;12.38;;
71172;SDS011;58875;51.996;4.504;2022-12-24T02:01:19;18.76;;;11.60;;
71172;SDS011;58875;51.996;4.504;2022-12-24T02:03:45;18.13;;;11.20;;
71172;SDS011;58875;51.996;4.504;2022-12-24T02:06:12;19.33;;;11.89;;
71172;SDS011;58875;51.996;4.504;2022-12-24T02:08:41;19.45;;;11.88;;
71172;SDS011;58875;51.996;4.504;2022-12-24T02:11:11;20.07;;;12.26;;
71172;SDS011;58875;51.996;4.504;2022-12-24T02:13:39;17.86;;;10.98;;
71172;SDS011;58875;51.996;4.504;2022-12-24T02:18:56;18.55;;;11.43;;
71172;SDS011;58875;51.996;4.504;2022-12-24T02:38:22;22.60;;;13.65;;
71172;SDS011;58875;51.996;4.504;2022-12-24T02:41:05;22.94;;;13.88;;
71172;SDS011;58875;51.996;4.504;2022-12-24T02:43:45;23.97;;;14.50;;
71172;SDS011;58875;51.996;4.504;2022-12-24T02:46:15;24.51;;;14.76;;
71172;SDS011;58875;51.996;4.504;2022-12-24T02:48:46;24.22;;;14.59;;
71172;SDS011;58875;51.996;4.504;2022-12-24T02:51:13;23.44;;;14.26;;
71172;SDS011;58875;51.996;4.504;2022-12-24T02:53:40;25.41;;;15.35;;
71172;SDS011;58875;51.996;4.504;2022-12-24T02:56:10;24.60;;;14.93;;
71172;SDS011;58875;51.996;4.504;2022-12-24T03:01:22;24.28;;;14.73;;
71172;SDS011;58875;51.996;4.504;2022-12-24T03:04:21;23.19;;;14.05;;
71172;SDS011;58875;51.996;4.504;2022-12-24T03:07:16;22.85;;;14.00;;
71172;SDS011;58875;51.996;4.504;2022-12-24T03:12:40;23.98;;;14.57;;
71172;SDS011;58875;51.996;4.504;2022-12-24T03:15:14;24.54;;;14.98;;
71172;SDS011;58875;51.996;4.504;2022-12-24T03:17:43;25.69;;;15.61;;
71172;SDS011;58875;51.996;4.504;2022-12-24T03:20:12;23.26;;;14.21;;
71172;SDS011;58875;51.996;4.504;2022-12-24T03:22:46;24.75;;;14.98;;
71172;SDS011;58875;51.996;4.504;2022-12-24T03:25:12;26.55;;;15.99;;
71172;SDS011;58875;51.996;4.504;2022-12-24T03:27:38;24.88;;;15.10;;
71172;SDS011;58875;51.996;4.504;2022-12-24T03:30:09;24.70;;;14.98;;
71172;SDS011;58875;51.996;4.504;2022-12-24T03:32:38;23.62;;;14.46;;
71172;SDS011;58875;51.996;4.504;2022-12-24T03:35:05;24.74;;;15.01;;
71172;SDS011;58875;51.996;4.504;2022-12-24T03:37:31;24.54;;;14.85;;
71172;SDS011;58875;51.996;4.504;2022-12-24T03:39:57;27.17;;;16.32;;
71172;SDS011;58875;51.996;4.504;2022-12-24T03:42:22;26.31;;;16.04;;
71172;SDS011;58875;51.996;4.504;2022-12-24T03:44:48;23.66;;;14.60;;
71172;SDS011;58875;51.996;4.504;2022-12-24T03:47:13;23.23;;;14.33;;
71172;SDS011;58875;51.996;4.504;2022-12-24T03:49:39;22.67;;;13.89;;
71172;SDS011;58875;51.996;4.504;2022-12-24T03:52:05;23.35;;;14.40;;
71172;SDS011;58875;51.996;4.504;2022-12-24T03:54:30;22.38;;;13.86;;
71172;SDS011;58875;51.996;4.504;2022-12-24T03:56:56;22.41;;;13.73;;
71172;SDS011;58875;51.996;4.504;2022-12-24T03:59:21;23.27;;;14.25;;
71172;SDS011;58875;51.996;4.504;2022-12-24T04:01:47;22.78;;;13.91;;
71172;SDS011;58875;51.996;4.504;2022-12-24T04:04:12;22.72;;;14.01;;
71172;SDS011;58875;51.996;4.504;2022-12-24T04:06:38;21.08;;;12.95;;
71172;SDS011;58875;51.996;4.504;2022-12-24T04:09:03;20.23;;;12.39;;
71172;SDS011;58875;51.996;4.504;2022-12-24T04:11:29;22.21;;;13.54;;
71172;SDS011;58875;51.996;4.504;2022-12-24T04:13:56;20.72;;;12.71;;
71172;SDS011;58875;51.996;4.504;2022-12-24T04:16:22;21.56;;;13.23;;
71172;SDS011;58875;51.996;4.504;2022-12-24T04:18:47;22.82;;;13.84;;
71172;SDS011;58875;51.996;4.504;2022-12-24T04:21:13;22.20;;;13.57;;
71172;SDS011;58875;51.996;4.504;2022-12-24T04:23:40;21.08;;;12.88;;
71172;SDS011;58875;51.996;4.504;2022-12-24T04:26:08;21.78;;;13.31;;
71172;SDS011;58875;51.996;4.504;2022-12-24T04:28:35;20.31;;;12.36;;
71172;SDS011;58875;51.996;4.504;2022-12-24T04:31:03;20.38;;;12.40;;
71172;SDS011;58875;51.996;4.504;2022-12-24T04:33:31;20.64;;;12.63;;
71172;SDS011;58875;51.996;4.504;2022-12-24T04:35:57;20.20;;;12.36;;
71172;SDS011;58875;51.996;4.504;2022-12-24T04:38:23;22.89;;;13.90;;
71172;SDS011;58875;51.996;4.504;2022-12-24T04:40:56;21.69;;;13.12;;
71172;SDS011;58875;51.996;4.504;2022-12-24T04:43:26;21.63;;;13.18;;
71172;SDS011;58875;51.996;4.504;2022-12-24T04:45:53;20.64;;;12.76;;
71172;SDS011;58875;51.996;4.504;2022-12-24T04:48:18;21.43;;;13.16;;
71172;SDS011;58875;51.996;4.504;2022-12-24T04:50:44;23.07;;;14.05;;
71172;SDS011;58875;51.996;4.504;2022-12-24T04:53:09;24.35;;;14.75;;
71172;SDS011;58875;51.996;4.504;2022-12-24T04:55:35;22.61;;;13.75;;
71172;SDS011;58875;51.996;4.504;2022-12-24T04:58:00;22.43;;;13.76;;
71172;SDS011;58875;51.996;4.504;2022-12-24T05:00:26;24.57;;;15.03;;
71172;SDS011;58875;51.996;4.504;2022-12-24T05:02:51;24.29;;;14.88;;
71172;SDS011;58875;51.996;4.504;2022-12-24T05:05:17;22.86;;;14.08;;
71172;SDS011;58875;51.996;4.504;2022-12-24T05:07:42;22.89;;;14.06;;
71172;SDS011;58875;51.996;4.504;2022-12-24T05:10:08;26.30;;;16.00;;
71172;SDS011;58875;51.996;4.504;2022-12-24T05:12:35;27.12;;;16.40;;
71172;SDS011;58875;51.996;4.504;2022-12-24T05:15:00;26.66;;;16.17;;
71172;SDS011;58875;51.996;4.504;2022-12-24T05:17:26;24.15;;;14.69;;
71172;SDS011;58875;51.996;4.504;2022-12-24T05:19:51;25.90;;;15.71;;
71172;SDS011;58875;51.996;4.504;2022-12-24T05:22:17;25.98;;;15.81;;
71172;SDS011;58875;51.996;4.504;2022-12-24T05:25:01;26.21;;;15.93;;
71172;SDS011;58875;51.996;4.504;2022-12-24T05:27:45;25.70;;;15.53;;
71172;SDS011;58875;51.996;4.504;2022-12-24T05:30:11;26.54;;;16.04;;
71172;SDS011;58875;51.996;4.504;2022-12-24T05:32:36;27.35;;;16.49;;
71172;SDS011;58875;51.996;4.504;2022-12-24T05:35:02;26.64;;;16.04;;
71172;SDS011;58875;51.996;4.504;2022-12-24T05:37:27;27.21;;;16.40;;
71172;SDS011;58875;51.996;4.504;2022-12-24T05:39:53;26.52;;;16.15;;
71172;SDS011;58875;51.996;4.504;2022-12-24T05:42:18;25.61;;;15.53;;
71172;SDS011;58875;51.996;4.504;2022-12-24T05:44:44;26.86;;;16.24;;
71172;SDS011;58875;51.996;4.504;2022-12-24T05:47:09;27.85;;;16.76;;
71172;SDS011;58875;51.996;4.504;2022-12-24T05:49:35;26.14;;;15.75;;
71172;SDS011;58875;51.996;4.504;2022-12-24T05:52:00;28.19;;;16.97;;
71172;SDS011;58875;51.996;4.504;2022-12-24T05:54:26;28.05;;;16.92;;
71172;SDS011;58875;51.996;4.504;2022-12-24T05:56:51;27.73;;;16.70;;
71172;SDS011;58875;51.996;4.504;2022-12-24T05:59:17;30.23;;;18.09;;
71172;SDS011;58875;51.996;4.504;2022-12-24T06:01:42;28.42;;;17.18;;
71172;SDS011;58875;51.996;4.504;2022-12-24T06:04:11;28.66;;;17.42;;
71172;SDS011;58875;51.996;4.504;2022-12-24T06:06:37;28.29;;;17.22;;
71172;SDS011;58875;51.996;4.504;2022-12-24T06:09:02;27.48;;;16.88;;
71172;SDS011;58875;51.996;4.504;2022-12-24T06:11:28;30.11;;;18.38;;
71172;SDS011;58875;51.996;4.504;2022-12-24T06:13:54;28.69;;;17.48;;
71172;SDS011;58875;51.996;4.504;2022-12-24T06:16:21;28.58;;;17.56;;
71172;SDS011;58875;51.996;4.504;2022-12-24T06:18:48;29.25;;;17.88;;
71172;SDS011;58875;51.996;4.504;2022-12-24T06:21:14;29.43;;;18.12;;
71172;SDS011;58875;51.996;4.504;2022-12-24T06:23:40;25.50;;;16.15;;
71172;SDS011;58875;51.996;4.504;2022-12-24T06:26:08;26.32;;;16.77;;
71172;SDS011;58875;51.996;4.504;2022-12-24T06:28:37;25.54;;;16.17;;
71172;SDS011;58875;51.996;4.504;2022-12-24T06:31:03;27.09;;;17.00;;
71172;SDS011;58875;51.996;4.504;2022-12-24T06:33:31;28.22;;;17.56;;
71172;SDS011;58875;51.996;4.504;2022-12-24T06:35:57;27.76;;;17.28;;
71172;SDS011;58875;51.996;4.504;2022-12-24T06:38:24;26.75;;;16.69;;
71172;SDS011;58875;51.996;4.504;2022-12-24T06:40:50;28.19;;;17.54;;
71172;SDS011;58875;51.996;4.504;2022-12-24T06:43:16;27.85;;;17.28;;
71172;SDS011;58875;51.996;4.504;2022-12-24T06:45:45;28.56;;;17.69;;
71172;SDS011;58875;51.996;4.504;2022-12-24T06:48:12;28.09;;;17.27;;
71172;SDS011;58875;51.996;4.504;2022-12-24T06:50:38;25.48;;;15.91;;
71172;SDS011;58875;51.996;4.504;2022-12-24T06:53:04;27.76;;;17.27;;
71172;SDS011;58875;51.996;4.504;2022-12-24T06:55:30;27.77;;;17.16;;
71172;SDS011;58875;51.996;4.504;2022-12-24T06:57:56;27.37;;;16.89;;
71172;SDS011;58875;51.996;4.504;2022-12-24T07:00:21;27.86;;;17.25;;
71172;SDS011;58875;51.996;4.504;2022-12-24T07:02:47;27.77;;;17.22;;
71172;SDS011;58875;51.996;4.504;2022-12-24T07:05:13;25.81;;;16.24;;
71172;SDS011;58875;51.996;4.504;2022-12-24T07:07:39;28.06;;;17.46;;
71172;SDS011;58875;51.996;4.504;2022-12-24T07:10:08;25.41;;;16.05;;
71172;SDS011;58875;51.996;4.504;2022-12-24T07:12:36;25.99;;;16.20;;
71172;SDS011;58875;51.996;4.504;2022-12-24T07:15:01;26.89;;;16.76;;
71172;SDS011;58875;51.996;4.504;2022-12-24T07:17:27;26.82;;;16.71;;
71172;SDS011;58875;51.996;4.504;2022-12-24T07:19:52;27.91;;;17.21;;
71172;SDS011;58875;51.996;4.504;2022-12-24T07:22:18;26.88;;;16.62;;
71172;SDS011;58875;51.996;4.504;2022-12-24T07:24:44;28.07;;;17.24;;
71172;SDS011;58875;51.996;4.504;2022-12-24T07:27:09;29.03;;;17.58;;
71172;SDS011;58875;51.996;4.504;2022-12-24T07:29:35;30.21;;;18.50;;
71172;SDS011;58875;51.996;4.504;2022-12-24T07:32:00;27.54;;;16.90;;
71172;SDS011;58875;51.996;4.504;2022-12-24T07:34:26;27.67;;;16.75;;
71172;SDS011;58875;51.996;4.504;2022-12-24T07:36:51;29.50;;;17.85;;
71172;SDS011;58875;51.996;4.504;2022-12-24T07:39:17;28.41;;;17.17;;
71172;SDS011;58875;51.996;4.504;2022-12-24T07:41:42;26.43;;;15.96;;
71172;SDS011;58875;51.996;4.504;2022-12-24T07:44:12;27.72;;;16.85;;
71172;SDS011;58875;51.996;4.504;2022-12-24T07:46:38;30.90;;;18.54;;
71172;SDS011;58875;51.996;4.504;2022-12-24T07:49:04;30.74;;;18.45;;
71172;SDS011;58875;51.996;4.504;2022-12-24T07:51:30;29.35;;;17.75;;
71172;SDS011;58875;51.996;4.504;2022-12-24T07:53:55;29.27;;;17.67;;
71172;SDS011;58875;51.996;4.504;2022-12-24T07:56:21;30.18;;;18.10;;
71172;SDS011;58875;51.996;4.504;2022-12-24T07:58:48;27.94;;;16.90;;
71172;SDS011;58875;51.996;4.504;2022-12-24T08:01:14;28.75;;;17.40;;
71172;SDS011;58875;51.996;4.504;2022-12-24T08:03:40;33.53;;;20.29;;
71172;SDS011;58875;51.996;4.504;2022-12-24T08:06:05;29.15;;;17.82;;
71172;SDS011;58875;51.996;4.504;2022-12-24T08:08:31;30.93;;;18.77;;
71172;SDS011;58875;51.996;4.504;2022-12-24T08:11:02;32.67;;;19.65;;
71172;SDS011;58875;51.996;4.504;2022-12-24T08:13:29;31.39;;;19.13;;
71172;SDS011;58875;51.996;4.504;2022-12-24T08:15:56;32.21;;;19.67;;
71172;SDS011;58875;51.996;4.504;2022-12-24T08:18:21;30.83;;;18.90;;
71172;SDS011;58875;51.996;4.504;2022-12-24T08:20:47;29.29;;;18.13;;
71172;SDS011;58875;51.996;4.504;2022-12-24T08:23:13;28.41;;;17.58;;
71172;SDS011;58875;51.996;4.504;2022-12-24T08:25:45;31.10;;;19.29;;
71172;SDS011;58875;51.996;4.504;2022-12-24T08:28:13;28.10;;;17.85;;
71172;SDS011;58875;51.996;4.504;2022-12-24T08:30:43;28.34;;;18.33;;
71172;SDS011;58875;51.996;4.504;2022-12-24T08:33:09;26.42;;;17.24;;
71172;SDS011;58875;51.996;4.504;2022-12-24T08:35:35;26.41;;;17.20;;
71172;SDS011;58875;51.996;4.504;2022-12-24T08:38:01;25.16;;;16.66;;
71172;SDS011;58875;51.996;4.504;2022-12-24T08:40:26;24.43;;;16.24;;
71172;SDS011;58875;51.996;4.504;2022-12-24T08:42:52;29.18;;;18.52;;
71172;SDS011;58875;51.996;4.504;2022-12-24T08:45:17;27.48;;;17.31;;
71172;SDS011;58875;51.996;4.504;2022-12-24T08:47:43;25.87;;;16.47;;
71172;SDS011;58875;51.996;4.504;2022-12-24T08:50:09;26.42;;;16.64;;
71172;SDS011;58875;51.996;4.504;2022-12-24T08:52:36;26.07;;;16.32;;
71172;SDS011;58875;51.996;4.504;2022-12-24T08:55:02;26.35;;;16.47;;
71172;SDS011;58875;51.996;4.504;2022-12-24T08:57:28;23.79;;;14.95;;
71172;SDS011;58875;51.996;4.504;2022-12-24T08:59:54;23.25;;;14.76;;
71172;SDS011;58875;51.996;4.504;2022-12-24T09:02:19;23.32;;;14.68;;
71172;SDS011;58875;51.996;4.504;2022-12-24T09:04:45;26.07;;;16.13;;
71172;SDS011;58875;51.996;4.504;2022-12-24T09:07:10;27.44;;;16.88;;
71172;SDS011;58875;51.996;4.504;2022-12-24T09:09:36;26.70;;;16.41;;
71172;SDS011;58875;51.996;4.504;2022-12-24T09:12:03;25.26;;;15.53;;
71172;SDS011;58875;51.996;4.504;2022-12-24T09:14:30;23.06;;;14.38;;
71172;SDS011;58875;51.996;4.504;2022-12-24T09:16:56;23.91;;;14.78;;
71172;SDS011;58875;51.996;4.504;2022-12-24T09:19:21;25.59;;;15.72;;
71172;SDS011;58875;51.996;4.504;2022-12-24T09:21:47;24.41;;;15.02;;
71172;SDS011;58875;51.996;4.504;2022-12-24T09:24:12;26.76;;;16.18;;
71172;SDS011;58875;51.996;4.504;2022-12-24T09:26:39;25.50;;;15.52;;
71172;SDS011;58875;51.996;4.504;2022-12-24T09:29:05;23.51;;;14.49;;
71172;SDS011;58875;51.996;4.504;2022-12-24T09:31:31;23.08;;;14.33;;
71172;SDS011;58875;51.996;4.504;2022-12-24T09:33:57;22.24;;;13.68;;
71172;SDS011;58875;51.996;4.504;2022-12-24T09:36:22;21.73;;;13.39;;
71172;SDS011;58875;51.996;4.504;2022-12-24T09:38:48;22.80;;;14.07;;
71172;SDS011;58875;51.996;4.504;2022-12-24T09:41:22;23.68;;;14.51;;
71172;SDS011;58875;51.996;4.504;2022-12-24T09:44:07;23.11;;;14.31;;
71172;SDS011;58875;51.996;4.504;2022-12-24T09:46:49;22.58;;;14.02;;
71172;SDS011;58875;51.996;4.504;2022-12-24T09:49:19;22.67;;;14.11;;
71172;SDS011;58875;51.996;4.504;2022-12-24T09:51:50;21.84;;;13.53;;
71172;SDS011;58875;51.996;4.504;2022-12-24T09:54:23;21.84;;;13.54;;
71172;SDS011;58875;51.996;4.504;2022-12-24T09:57:03;22.66;;;14.01;;
71172;SDS011;58875;51.996;4.504;2022-12-24T09:59:44;23.06;;;14.24;;
71172;SDS011;58875;51.996;4.504;2022-12-24T10:02:16;23.23;;;14.30;;
71172;SDS011;58875;51.996;4.504;2022-12-24T10:04:44;22.05;;;13.62;;
71172;SDS011;58875;51.996;4.504;2022-12-24T10:12:51;21.42;;;13.27;;
71172;SDS011;58875;51.996;4.504;2022-12-24T10:18:44;21.75;;;13.41;;
71172;SDS011;58875;51.996;4.504;2022-12-24T10:21:18;21.80;;;13.54;;
71172;SDS011;58875;51.996;4.504;2022-12-24T10:24:03;21.25;;;13.25;;
71172;SDS011;58875;51.996;4.504;2022-12-24T10:26:45;21.33;;;13.19;;
71172;SDS011;58875;51.996;4.504;2022-12-24T10:29:22;21.26;;;13.22;;
71172;SDS011;58875;51.996;4.504;2022-12-24T10:31:55;20.28;;;12.67;;
71172;SDS011;58875;51.996;4.504;2022-12-24T10:34:31;18.63;;;11.77;;
71172;SDS011;58875;51.996;4.504;2022-12-24T10:37:04;20.26;;;12.64;;
71172;SDS011;58875;51.996;4.504;2022-12-24T10:39:30;20.50;;;12.80;;
71172;SDS011;58875;51.996;4.504;2022-12-24T10:41:56;21.28;;;13.27;;
71172;SDS011;58875;51.996;4.504;2022-12-24T10:44:27;20.12;;;12.61;;
71172;SDS011;58875;51.996;4.504;2022-12-24T10:46:56;20.38;;;12.69;;
71172;SDS011;58875;51.996;4.504;2022-12-24T10:52:03;19.88;;;12.47;;
71172;SDS011;58875;51.996;4.504;2022-12-24T10:54:35;19.01;;;11.92;;
71172;SDS011;58875;51.996;4.504;2022-12-24T10:57:04;20.65;;;12.82;;
71172;SDS011;58875;51.996;4.504;2022-12-24T10:59:50;18.55;;;11.55;;
71172;SDS011;58875;51.996;4.504;2022-12-24T11:04:53;17.81;;;11.28;;
71172;SDS011;58875;51.996;4.504;2022-12-24T11:07:20;17.33;;;10.93;;
71172;SDS011;58875;51.996;4.504;2022-12-24T11:09:58;19.30;;;12.09;;
71172;SDS011;58875;51.996;4.504;2022-12-24T11:12:32;19.69;;;12.23;;
71172;SDS011;58875;51.996;4.504;2022-12-24T11:17:29;21.09;;;12.96;;
71172;SDS011;58875;51.996;4.504;2022-12-24T11:19:55;22.35;;;13.70;;
71172;SDS011;58875;51.996;4.504;2022-12-24T11:24:56;19.78;;;12.33;;
71172;SDS011;58875;51.996;4.504;2022-12-24T11:27:31;18.92;;;11.81;;
71172;SDS011;58875;51.996;4.504;2022-12-24T11:30:40;20.13;;;12.52;;
71172;SDS011;58875;51.996;4.504;2022-12-24T11:32:49;18.71;;;11.78;;
71172;SDS011;58875;51.996;4.504;2022-12-24T11:35:24;18.84;;;11.89;;
71172;SDS011;58875;51.996;4.504;2022-12-24T11:40:30;20.79;;;12.96;;
71172;SDS011;58875;51.996;4.504;2022-12-24T11:43:00;18.90;;;11.80;;
71172;SDS011;58875;51.996;4.504;2022-12-24T11:45:29;18.19;;;11.40;;
71172;SDS011;58875;51.996;4.504;2022-12-24T11:47:57;17.98;;;11.26;;
71172;SDS011;58875;51.996;4.504;2022-12-24T11:50:35;19.79;;;12.24;;
71172;SDS011;58875;51.996;4.504;2022-12-24T11:55:56;18.66;;;11.56;;
71172;SDS011;58875;51.996;4.504;2022-12-24T11:58:41;19.74;;;12.26;;
71172;SDS011;58875;51.996;4.504;2022-12-24T12:01:20;15.89;;;10.08;;
71172;SDS011;58875;51.996;4.504;2022-12-24T12:03:52;16.04;;;10.19;;
71172;SDS011;58875;51.996;4.504;2022-12-24T12:06:24;16.78;;;10.66;;
71172;SDS011;58875;51.996;4.504;2022-12-24T12:08:54;16.56;;;10.41;;
71172;SDS011;58875;51.996;4.504;2022-12-24T12:11:24;17.13;;;10.73;;
71172;SDS011;58875;51.996;4.504;2022-12-24T12:13:52;19.95;;;12.29;;
71172;SDS011;58875;51.996;4.504;2022-12-24T12:16:29;15.97;;;9.97;;
71172;SDS011;58875;51.996;4.504;2022-12-24T12:19:32;18.87;;;11.62;;
71172;SDS011;58875;51.996;4.504;2022-12-24T12:22:06;17.51;;;10.82;;
71172;SDS011;58875;51.996;4.504;2022-12-24T12:24:52;18.24;;;11.29;;
71172;SDS011;58875;51.996;4.504;2022-12-24T12:27:36;17.80;;;11.17;;
71172;SDS011;58875;51.996;4.504;2022-12-24T12:30:15;16.26;;;10.23;;
71172;SDS011;58875;51.996;4.504;2022-12-24T12:32:50;17.70;;;11.06;;
71172;SDS011;58875;51.996;4.504;2022-12-24T12:35:45;18.57;;;11.74;;
71172;SDS011;58875;51.996;4.504;2022-12-24T12:38:20;16.31;;;10.47;;
71172;SDS011;58875;51.996;4.504;2022-12-24T12:46:28;15.02;;;9.43;;
71172;SDS011;58875;51.996;4.504;2022-12-24T12:52:31;18.46;;;11.48;;
71172;SDS011;58875;51.996;4.504;2022-12-24T12:57:45;16.13;;;10.31;;
71172;SDS011;58875;51.996;4.504;2022-12-24T13:00:15;15.52;;;9.93;;
71172;SDS011;58875;51.996;4.504;2022-12-24T13:02:54;15.43;;;9.71;;
71172;SDS011;58875;51.996;4.504;2022-12-24T13:22:00;16.45;;;10.38;;
71172;SDS011;58875;51.996;4.504;2022-12-24T13:24:26;15.81;;;9.93;;
71172;SDS011;58875;51.996;4.504;2022-12-24T13:26:58;17.20;;;10.73;;
71172;SDS011;58875;51.996;4.504;2022-12-24T13:32:52;18.00;;;11.15;;
71172;SDS011;58875;51.996;4.504;2022-12-24T13:37:44;16.86;;;10.53;;
71172;SDS011;58875;51.996;4.504;2022-12-24T13:40:15;16.72;;;10.60;;
71172;SDS011;58875;51.996;4.504;2022-12-24T13:50:42;16.26;;;10.54;;
71172;SDS011;58875;51.996;4.504;2022-12-24T13:55:51;15.02;;;9.65;;
71172;SDS011;58875;51.996;4.504;2022-12-24T13:58:27;14.56;;;9.20;;
71172;SDS011;58875;51.996;4.504;2022-12-24T14:00:53;14.89;;;9.42;;
71172;SDS011;58875;51.996;4.504;2022-12-24T14:03:27;15.26;;;9.67;;
71172;SDS011;58875;51.996;4.504;2022-12-24T14:05:57;15.58;;;9.82;;
71172;SDS011;58875;51.996;4.504;2022-12-24T14:08:45;17.09;;;10.76;;
71172;SDS011;58875;51.996;4.504;2022-12-24T14:11:19;16.18;;;10.43;;
71172;SDS011;58875;51.996;4.504;2022-12-24T14:16:28;14.73;;;9.52;;
71172;SDS011;58875;51.996;4.504;2022-12-24T14:22:00;18.04;;;11.44;;
71172;SDS011;58875;51.996;4.504;2022-12-24T14:24:36;17.49;;;11.19;;
71172;SDS011;58875;51.996;4.504;2022-12-24T14:27:20;19.77;;;12.63;;
71172;SDS011;58875;51.996;4.504;2022-12-24T14:32:42;18.75;;;12.02;;
71172;SDS011;58875;51.996;4.504;2022-12-24T14:37:49;17.40;;;11.29;;
71172;SDS011;58875;51.996;4.504;2022-12-24T14:40:29;18.84;;;12.08;;
71172;SDS011;58875;51.996;4.504;2022-12-24T14:45:57;17.11;;;11.24;;
71172;SDS011;58875;51.996;4.504;2022-12-24T14:48:39;16.57;;;10.95;;
71172;SDS011;58875;51.996;4.504;2022-12-24T14:54:12;16.80;;;11.13;;
71172;SDS011;58875;51.996;4.504;2022-12-24T14:59:39;18.47;;;12.19;;
71172;SDS011;58875;51.996;4.504;2022-12-24T15:07:45;18.83;;;12.34;;
71172;SDS011;58875;51.996;4.504;2022-12-24T15:10:27;18.20;;;12.05;;
71172;SDS011;58875;51.996;4.504;2022-12-24T15:12:56;18.06;;;11.97;;
71172;SDS011;58875;51.996;4.504;2022-12-24T15:15:28;18.13;;;12.20;;
71172;SDS011;58875;51.996;4.504;2022-12-24T15:17:54;14.76;;;10.27;;
71172;SDS011;58875;51.996;4.504;2022-12-24T15:20:23;15.86;;;11.05;;
71172;SDS011;58875;51.996;4.504;2022-12-24T15:22:52;17.04;;;11.55;;
71172;SDS011;58875;51.996;4.504;2022-12-24T15:25:27;18.62;;;12.38;;
71172;SDS011;58875;51.996;4.504;2022-12-24T15:27:54;17.53;;;11.51;;
71172;SDS011;58875;51.996;4.504;2022-12-24T15:30:22;16.63;;;10.92;;
71172;SDS011;58875;51.996;4.504;2022-12-24T15:32:50;17.07;;;11.22;;
71172;SDS011;58875;51.996;4.504;2022-12-24T15:40:55;17.36;;;11.29;;
71172;SDS011;58875;51.996;4.504;2022-12-24T15:43:22;16.98;;;11.06;;
71172;SDS011;58875;51.996;4.504;2022-12-24T15:45:50;17.53;;;11.62;;
71172;SDS011;58875;51.996;4.504;2022-12-24T15:48:24;16.58;;;11.41;;
71172;SDS011;58875;51.996;4.504;2022-12-24T15:50:53;17.32;;;12.03;;
71172;SDS011;58875;51.996;4.504;2022-12-24T15:53:29;15.95;;;11.37;;
71172;SDS011;58875;51.996;4.504;2022-12-24T15:58:26;15.16;;;10.91;;
71172;SDS011;58875;51.996;4.504;2022-12-24T16:01:25;15.26;;;10.95;;
71172;SDS011;58875;51.996;4.504;2022-12-24T16:06:16;15.24;;;10.94;;
71172;SDS011;58875;51.996;4.504;2022-12-24T16:08:43;15.09;;;10.80;;
71172;SDS011;58875;51.996;4.504;2022-12-24T16:11:14;15.11;;;10.80;;
71172;SDS011;58875;51.996;4.504;2022-12-24T16:16:16;14.65;;;11.07;;
71172;SDS011;58875;51.996;4.504;2022-12-24T16:19:00;14.87;;;11.08;;
71172;SDS011;58875;51.996;4.504;2022-12-24T16:21:31;16.12;;;11.85;;
71172;SDS011;58875;51.996;4.504;2022-12-24T16:24:03;14.92;;;11.20;;
71172;SDS011;58875;51.996;4.504;2022-12-24T16:26:50;16.50;;;12.04;;
71172;SDS011;58875;51.996;4.504;2022-12-24T16:29:17;17.11;;;12.78;;
71172;SDS011;58875;51.996;4.504;2022-12-24T16:31:53;15.97;;;12.33;;
71172;SDS011;58875;51.996;4.504;2022-12-24T16:34:25;14.19;;;11.00;;
71172;SDS011;58875;51.996;4.504;2022-12-24T16:36:53;14.68;;;11.56;;
71172;SDS011;58875;51.996;4.504;2022-12-24T16:39:20;14.22;;;11.50;;
71172;SDS011;58875;51.996;4.504;2022-12-24T16:41:53;14.54;;;11.60;;
71172;SDS011;58875;51.996;4.504;2022-12-24T16:44:39;15.36;;;11.87;;
71172;SDS011;58875;51.996;4.504;2022-12-24T16:47:08;14.94;;;11.71;;
71172;SDS011;58875;51.996;4.504;2022-12-24T16:49:37;16.60;;;13.17;;